Time;durP1;ratioP1;P1;durP2;ratioP2;P2;SDS_P1;SDS_P2;PMS_P1;PMS_P2;Temp;Humidity;BMP_temperature;BMP_pressure;BME280_temperature;BME280_humidity;BME280_pressure;Samples;Min_cycle;Max_cycle;Signal;HPM_P1;HPM_P2
2021/09/09 00:02:15;;;;;;;17.63;11.38;;;;;;;20.29;51.72;101072.25;4973391;28;114486;-65
2021/09/09 00:04:43;;;;;;;20.63;11.95;;;;;;;20.27;51.66;101066.16;4971136;28;114382;-65
2021/09/09 00:07:11;;;;;;;16.13;10.68;;;;;;;20.26;51.83;101069.81;4972793;28;123723;-65
2021/09/09 00:09:39;;;;;;;18.42;11.82;;;;;;;20.23;51.84;101059.34;4963634;28;123938;-65
2021/09/09 00:12:07;;;;;;;17.80;11.23;;;;;;;20.23;51.76;101059.34;4972136;28;114418;-65
2021/09/09 00:14:35;;;;;;;20.42;12.00;;;;;;;20.22;51.86;101052.22;4981386;28;113141;-65
2021/09/09 00:17:02;;;;;;;17.67;11.40;;;;;;;20.21;51.82;101050.50;4971670;28;124382;-65
2021/09/09 00:19:29;;;;;;;17.52;11.27;;;;;;;20.20;51.77;101054.19;4969938;28;124013;-65
2021/09/09 00:21:57;;;;;;;16.60;11.35;;;;;;;20.19;51.91;101047.09;4969960;28;115414;-65
2021/09/09 00:24:25;;;;;;;15.73;10.88;;;;;;;20.18;52.05;101040.88;4970729;28;115442;-65
2021/09/09 00:26:52;;;;;;;18.42;11.35;;;;;;;20.15;52.01;101029.50;4968675;28;123370;-65
2021/09/09 00:29:22;;;;;;;16.85;11.00;;;;;;;20.14;52.03;101033.19;4969701;28;124289;-65
2021/09/09 00:31:50;;;;;;;18.10;11.13;;;;;;;20.12;51.97;101029.78;4971209;28;116616;-64
2021/09/09 00:34:17;;;;;;;16.45;10.80;;;;;;;20.11;52.10;101028.06;4976810;28;113155;-64
2021/09/09 00:36:45;;;;;;;18.40;11.73;;;;;;;20.08;52.00;101028.31;4972173;28;124228;-65
2021/09/09 00:39:12;;;;;;;19.58;11.98;;;;;;;20.06;52.35;101022.19;4969261;28;124275;-65
2021/09/09 00:41:39;;;;;;;18.08;11.38;;;;;;;20.03;52.47;101021.47;4970016;28;114219;-64
2021/09/09 00:44:21;;;;;;;18.73;12.52;;;;;;;20.01;52.36;101028.81;4970481;28;113862;-65
2021/09/09 00:47:07;;;;;;;16.30;10.85;;;;;;;20.00;52.43;101029.81;4971978;28;123870;-64
2021/09/09 00:49:38;;;;;;;18.73;11.75;;;;;;;19.99;52.46;101020.03;4971576;28;123801;-64
2021/09/09 00:52:06;;;;;;;18.50;11.43;;;;;;;19.99;52.62;101020.03;4970593;28;114484;-64
2021/09/09 00:54:34;;;;;;;18.10;11.82;;;;;;;19.99;52.70;101022.72;4972792;28;113901;-65
2021/09/09 00:57:03;;;;;;;19.30;11.70;;;;;;;19.99;52.66;101011.97;4971499;28;122985;-64
2021/09/09 00:59:32;;;;;;;17.80;11.68;;;;;;;19.98;52.67;101018.28;4970966;28;124875;-64
2021/09/09 01:01:59;;;;;;;17.88;11.68;;;;;;;19.97;52.67;101011.22;4972473;28;114656;-65
2021/09/09 01:04:26;;;;;;;21.35;11.98;;;;;;;19.97;52.61;101016.59;4975669;28;113996;-65
2021/09/09 01:06:55;;;;;;;18.60;11.02;;;;;;;19.96;52.62;101009.50;4970019;28;124301;-65
2021/09/09 01:09:23;;;;;;;16.52;11.30;;;;;;;19.92;52.69;101008.06;4971786;28;124810;-65
2021/09/09 01:11:50;;;;;;;16.85;10.90;;;;;;;19.92;52.45;101008.06;4971107;28;115218;-64
2021/09/09 01:14:18;;;;;;;17.67;11.15;;;;;;;19.89;52.50;101002.94;4969242;28;115102;-65
2021/09/09 01:16:47;;;;;;;17.20;11.05;;;;;;;19.88;52.53;101005.75;4974159;28;125033;-65
2021/09/09 01:19:15;;;;;;;16.13;10.75;;;;;;;19.84;52.37;100999.78;4966724;28;124886;-65
2021/09/09 01:21:43;;;;;;;17.42;11.25;;;;;;;19.82;52.29;101001.75;4970849;28;114103;-64
2021/09/09 01:24:12;;;;;;;18.35;11.15;;;;;;;19.78;52.18;101000.28;4970984;28;114203;-65
2021/09/09 01:26:55;;;;;;;16.90;10.65;;;;;;;19.73;52.29;100994.41;4971706;28;124613;-64
2021/09/09 01:29:25;;;;;;;16.77;11.38;;;;;;;19.65;52.21;100990.50;4983865;28;123996;-65
2021/09/09 01:31:53;;;;;;;17.27;10.82;;;;;;;19.61;52.24;100983.66;4972263;28;113933;-65
2021/09/09 01:34:22;;;;;;;19.33;11.32;;;;;;;19.56;52.13;100985.84;4972953;28;114332;-65
2021/09/09 01:36:49;;;;;;;19.25;12.02;;;;;;;19.52;52.38;100989.78;4976354;28;124194;-64
2021/09/09 01:39:16;;;;;;;18.55;12.02;;;;;;;19.48;52.65;100980.25;4970615;28;123011;-64
2021/09/09 01:41:43;;;;;;;22.67;11.55;;;;;;;19.46;52.74;100984.91;4967253;28;114140;-65
2021/09/09 01:44:10;;;;;;;18.13;11.55;;;;;;;19.43;52.78;100977.06;4975711;28;112945;-64
2021/09/09 01:46:37;;;;;;;22.23;13.15;;;;;;;19.39;52.97;100981.00;4971039;28;124759;-65
2021/09/09 01:49:05;;;;;;;18.88;12.43;;;;;;;19.37;52.95;100975.75;4965894;28;123753;-65
2021/09/09 01:51:32;;;;;;;19.17;12.65;;;;;;;19.35;53.05;100982.22;4965368;28;114567;-64
2021/09/09 01:53:59;;;;;;;22.20;11.98;;;;;;;19.34;52.97;100983.19;4970464;28;113808;-64
2021/09/09 01:56:26;;;;;;;19.30;12.70;;;;;;;19.32;53.07;100983.31;4969339;28;124841;-64
2021/09/09 01:58:53;;;;;;;19.65;12.15;;;;;;;19.32;53.14;100971.72;4964833;28;124740;-64
2021/09/09 02:01:22;;;;;;;20.25;12.40;;;;;;;19.30;53.27;100968.28;4968765;28;115226;-64
2021/09/09 02:03:50;;;;;;;21.50;12.70;;;;;;;19.26;53.28;100963.16;4970371;28;115314;-65
2021/09/09 02:06:17;;;;;;;18.45;12.27;;;;;;;19.26;53.41;100960.47;4971924;28;124577;-64
2021/09/09 02:08:44;;;;;;;20.20;12.95;;;;;;;19.23;53.49;100963.44;4965026;28;124054;-64
2021/09/09 02:11:12;;;;;;;22.15;12.82;;;;;;;19.22;53.53;100961.69;4967597;28;115075;-64
2021/09/09 02:13:39;;;;;;;21.23;13.05;;;;;;;19.22;53.60;100961.69;4964324;28;114653;-64
2021/09/09 02:16:06;;;;;;;22.52;12.25;;;;;;;19.22;53.57;100966.22;4969359;28;124517;-64
2021/09/09 02:18:34;;;;;;;19.05;12.15;;;;;;;19.20;53.56;100969.03;4967104;28;123793;-64
2021/09/09 02:21:02;;;;;;;21.92;12.77;;;;;;;19.19;53.69;100972.72;4968021;28;114124;-64
2021/09/09 02:23:29;;;;;;;20.50;12.70;;;;;;;19.19;53.75;100972.72;4966502;28;114261;-64
2021/09/09 02:25:56;;;;;;;21.75;13.20;;;;;;;19.20;53.80;100979.78;4967783;28;124335;-64
2021/09/09 02:28:23;;;;;;;22.63;12.70;;;;;;;19.19;54.03;100978.06;4971085;28;124191;-64
2021/09/09 02:30:50;;;;;;;19.55;12.23;;;;;;;19.20;53.75;100977.09;4968221;28;114589;-64
2021/09/09 02:33:17;;;;;;;18.02;11.85;;;;;;;19.20;53.91;100979.78;4978806;28;114582;-63
2021/09/09 02:35:44;;;;;;;20.42;12.38;;;;;;;19.21;53.72;100984.19;4971156;28;124340;-64
2021/09/09 02:38:12;;;;;;;20.38;12.65;;;;;;;19.19;53.66;100980.75;4972628;28;122828;-64
2021/09/09 02:40:39;;;;;;;21.48;12.43;;;;;;;19.19;53.67;100972.72;4971250;28;114344;-64
2021/09/09 02:43:06;;;;;;;20.42;12.50;;;;;;;19.18;53.52;100976.34;4971669;28;113977;-64
2021/09/09 02:45:34;;;;;;;21.85;12.82;;;;;;;19.17;53.25;100979.16;4972206;28;123692;-64
2021/09/09 02:48:02;;;;;;;22.45;11.75;;;;;;;19.12;53.27;100976.84;4972445;28;123931;-64
2021/09/09 02:50:31;;;;;;;18.13;11.95;;;;;;;19.07;53.29;100973.66;4971116;28;114257;-64
2021/09/09 02:52:58;;;;;;;18.35;11.57;;;;;;;19.04;53.35;100973.91;4970478;28;115383;-64
2021/09/09 02:55:26;;;;;;;18.65;12.10;;;;;;;19.01;53.30;100984.88;4972611;28;124434;-64
2021/09/09 02:57:53;;;;;;;22.65;13.52;;;;;;;18.97;53.47;100970.84;4966550;28;124685;-64
2021/09/09 03:00:20;;;;;;;19.35;12.35;;;;;;;18.95;53.50;100963.88;4969880;28;114554;-64
2021/09/09 03:02:48;;;;;;;19.67;12.27;;;;;;;18.91;53.60;100965.09;4973706;28;113962;-64
2021/09/09 03:05:15;;;;;;;20.85;12.70;;;;;;;18.89;53.73;100965.22;4969070;28;123867;-64
2021/09/09 03:07:42;;;;;;;21.73;13.40;;;;;;;18.85;53.78;100964.63;4969631;28;123781;-65
2021/09/09 03:10:10;;;;;;;19.80;12.07;;;;;;;18.83;53.77;100957.66;4970059;28;113956;-64
2021/09/09 03:12:39;;;;;;;21.63;13.30;;;;;;;18.80;53.89;100956.06;4970169;28;113818;-64
2021/09/09 03:15:07;;;;;;;22.35;13.18;;;;;;;18.79;54.03;100959.69;4972302;28;124221;-64
2021/09/09 03:17:34;;;;;;;21.67;12.70;;;;;;;18.77;53.98;100956.25;4973739;28;123098;-64
2021/09/09 03:20:02;;;;;;;21.98;13.32;;;;;;;18.76;53.87;100959.94;4971126;28;114997;-64
2021/09/09 03:22:30;;;;;;;21.25;12.73;;;;;;;18.74;53.93;100953.84;4973783;28;113861;-65
2021/09/09 03:24:57;;;;;;;21.75;13.30;;;;;;;18.73;53.70;100954.81;4973153;28;124817;-65
2021/09/09 03:27:25;;;;;;;20.52;13.13;;;;;;;18.70;53.80;100960.38;4971813;28;124192;-64
2021/09/09 03:29:52;;;;;;;20.00;12.30;;;;;;;18.66;53.75;100954.41;4970572;28;114516;-64
2021/09/09 03:32:19;;;;;;;18.92;12.52;;;;;;;18.62;53.70;100954.78;4974210;28;114046;-64
2021/09/09 03:34:46;;;;;;;22.42;13.05;;;;;;;18.58;53.78;100951.47;4969343;28;123843;-64
2021/09/09 03:37:14;;;;;;;19.52;12.63;;;;;;;18.55;54.00;100951.69;4956004;28;122737;-63
2021/09/09 03:39:41;;;;;;;22.42;13.65;;;;;;;18.53;54.21;100952.81;4970842;28;114048;-64
2021/09/09 03:42:08;;;;;;;22.83;14.05;;;;;;;18.51;54.23;100955.59;4974454;28;115610;-64
2021/09/09 03:44:36;;;;;;;20.08;13.35;;;;;;;18.48;54.30;100950.50;4968916;28;124582;-64
2021/09/09 03:47:03;;;;;;;24.33;13.02;;;;;;;18.49;54.59;100947.66;4974529;28;122860;-64
2021/09/09 03:49:30;;;;;;;22.20;12.73;;;;;;;18.47;54.58;100938.88;4970675;28;114222;-64
2021/09/09 03:51:58;;;;;;;19.63;12.98;;;;;;;18.47;54.50;100941.56;4970555;28;114193;-64
2021/09/09 03:54:25;;;;;;;25.85;14.43;;;;;;;18.45;54.88;100942.66;4974396;28;123880;-64
2021/09/09 03:56:52;;;;;;;21.60;13.20;;;;;;;18.43;54.73;100937.41;4974969;28;124453;-64
2021/09/09 03:59:20;;;;;;;23.20;13.88;;;;;;;18.44;54.74;100933.78;4978101;28;114479;-64
2021/09/09 04:01:47;;;;;;;20.50;13.75;;;;;;;18.44;54.83;100932.91;4969799;28;114140;-64
2021/09/09 04:04:15;;;;;;;22.92;13.70;;;;;;;18.44;54.99;100938.25;4969375;28;123413;-64
2021/09/09 04:06:42;;;;;;;24.52;13.30;;;;;;;18.41;55.01;100923.28;4969167;28;124070;-64
2021/09/09 04:09:09;;;;;;;25.70;13.77;;;;;;;18.41;54.97;100923.28;4970862;28;113340;-64
2021/09/09 04:11:36;;;;;;;24.58;14.18;;;;;;;18.40;55.06;100932.31;4966348;28;114223;-64
2021/09/09 04:14:04;;;;;;;22.67;14.25;;;;;;;18.40;55.18;100926.94;4965541;28;124813;-64
2021/09/09 04:16:31;;;;;;;21.17;13.48;;;;;;;18.40;55.15;100926.94;4982955;22;124283;-66
2021/09/09 04:18:58;;;;;;;22.95;13.70;;;;;;;18.39;55.15;100929.72;4969305;28;114191;-65
2021/09/09 04:21:26;;;;;;;22.63;14.27;;;;;;;18.40;55.22;100926.94;4970326;28;114039;-63
2021/09/09 04:23:57;;;;;;;25.13;13.95;;;;;;;18.40;55.19;100926.94;4968951;28;123077;-63
2021/09/09 04:26:25;;;;;;;24.45;14.32;;;;;;;18.40;55.15;100926.94;4969690;28;123838;-63
2021/09/09 04:28:52;;;;;;;24.52;15.00;;;;;;;18.41;55.22;100928.63;4968947;28;115927;-63
2021/09/09 04:31:19;;;;;;;23.08;13.75;;;;;;;18.41;55.33;100928.63;4965820;28;115232;-64
2021/09/09 04:33:46;;;;;;;23.50;13.88;;;;;;;18.40;55.35;100921.56;4968497;28;124662;-64
2021/09/09 04:36:13;;;;;;;22.73;14.13;;;;;;;18.41;55.35;100934.00;4970158;28;123908;-64
2021/09/09 04:38:40;;;;;;;29.70;14.95;;;;;;;18.39;55.53;100925.22;4967257;28;114342;-62
2021/09/09 04:41:07;;;;;;;24.27;14.57;;;;;;;18.40;55.46;100932.31;4968377;28;114135;-64
2021/09/09 04:43:34;;;;;;;23.77;14.15;;;;;;;18.40;55.49;100932.31;4967682;28;124388;-64
2021/09/09 04:46:02;;;;;;;26.83;14.35;;;;;;;18.40;55.59;100926.94;4970455;28;124639;-64
2021/09/09 04:48:29;;;;;;;23.42;14.20;;;;;;;18.42;55.72;100930.34;4968853;28;114884;-65
2021/09/09 04:50:56;;;;;;;23.95;14.52;;;;;;;18.43;55.81;100931.19;4969963;28;114784;-64
2021/09/09 04:53:23;;;;;;;25.80;13.50;;;;;;;18.44;55.96;100928.41;4968683;28;124654;-65
2021/09/09 04:55:50;;;;;;;23.23;13.95;;;;;;;18.45;55.94;100924.75;4967899;28;124019;-65
2021/09/09 04:58:17;;;;;;;21.45;14.25;;;;;;;18.46;55.84;100925.63;4969999;28;114102;-65
2021/09/09 05:00:44;;;;;;;23.13;14.43;;;;;;;18.46;55.99;100921.09;4969205;28;114646;-64
2021/09/09 05:03:12;;;;;;;23.83;14.35;;;;;;;18.46;55.63;100918.41;4970340;28;124459;-64
2021/09/09 05:05:39;;;;;;;21.95;13.95;;;;;;;18.46;55.71;100915.72;4969604;28;123942;-64
2021/09/09 05:08:07;;;;;;;23.55;14.38;;;;;;;18.46;55.81;100910.38;4969727;28;113873;-64
2021/09/09 05:10:34;;;;;;;23.75;14.20;;;;;;;18.46;55.75;100915.72;4967781;28;114557;-64
2021/09/09 05:13:01;;;;;;;21.77;14.43;;;;;;;18.46;55.89;100910.38;4968985;28;122842;-62
2021/09/09 05:15:28;;;;;;;25.52;13.88;;;;;;;18.46;55.81;100899.63;4970710;28;123960;-62
2021/09/09 05:17:55;;;;;;;25.13;14.60;;;;;;;18.44;55.91;100901.59;4960554;28;116946;-62
2021/09/09 05:20:23;;;;;;;22.02;13.55;;;;;;;18.43;55.83;100910.59;4971408;28;115345;-64
2021/09/09 05:22:50;;;;;;;21.75;13.88;;;;;;;18.40;55.93;100905.50;4965140;28;123257;-62
2021/09/09 05:25:17;;;;;;;21.63;13.60;;;;;;;18.41;56.00;100907.19;4968497;28;124580;-66
2021/09/09 05:27:44;;;;;;;23.75;15.35;;;;;;;18.42;55.87;100903.53;4969665;28;114106;-62
2021/09/09 05:30:12;;;;;;;25.52;14.88;;;;;;;18.43;55.98;100904.38;4970552;28;113958;-63
2021/09/09 05:32:39;;;;;;;23.20;13.95;;;;;;;18.45;55.98;100908.66;4966159;28;124193;-63
2021/09/09 05:35:08;;;;;;;23.98;13.60;;;;;;;18.44;55.85;100901.59;4985150;28;122670;-63
2021/09/09 05:37:35;;;;;;;22.95;14.25;;;;;;;18.45;56.13;100905.97;4967300;28;114662;-63
2021/09/09 05:40:04;;;;;;;25.88;14.15;;;;;;;18.47;56.17;100912.06;4969010;28;113583;-63
2021/09/09 05:42:32;;;;;;;25.20;14.57;;;;;;;18.48;55.96;100900.38;4968772;28;124380;-63
2021/09/09 05:44:59;;;;;;;24.45;14.98;;;;;;;18.50;56.09;100905.63;4967188;28;124322;-63
2021/09/09 05:47:26;;;;;;;26.15;14.10;;;;;;;18.52;56.09;100897.47;4968458;28;114191;-63
2021/09/09 05:49:53;;;;;;;24.38;13.45;;;;;;;18.54;56.31;100906.25;4963548;28;115033;-63
2021/09/09 05:52:20;;;;;;;23.77;13.75;;;;;;;18.55;56.24;100907.94;4967080;28;124346;-63
2021/09/09 05:54:47;;;;;;;22.23;14.13;;;;;;;18.57;56.21;100911.34;4968121;28;124355;-63
2021/09/09 05:57:14;;;;;;;24.27;14.02;;;;;;;18.61;56.20;100908.31;4970274;28;114670;-64
2021/09/09 05:59:42;;;;;;;26.42;15.35;;;;;;;18.65;56.17;100898.22;4966146;28;114441;-63
2021/09/09 06:02:15;;;;;;;24.63;15.02;;;;;;;18.68;56.35;100903.31;4968493;28;122963;-63
2021/09/09 06:04:44;;;;;;;23.00;14.70;;;;;;;18.71;56.42;100903.09;4966601;28;123413;-63
2021/09/09 06:07:11;;;;;;;29.02;14.88;;;;;;;18.75;56.58;100904.56;4965689;28;115955;-64
2021/09/09 06:09:40;;;;;;;25.27;15.60;;;;;;;18.80;56.53;100901.53;4969382;28;115138;-63
2021/09/09 06:12:08;;;;;;;26.27;16.05;;;;;;;18.84;56.71;100906.53;4968414;28;124073;-64
2021/09/09 06:14:35;;;;;;;21.85;14.95;;;;;;;18.90;56.54;100901.69;4967412;28;124270;-64
2021/09/09 06:17:02;;;;;;;27.40;16.23;;;;;;;18.95;56.79;100891.41;4964532;28;114141;-63
2021/09/09 06:19:30;;;;;;;26.80;15.68;;;;;;;19.01;56.84;100890.94;4964606;28;114225;-64
2021/09/09 06:21:58;;;;;;;26.10;16.17;;;;;;;19.08;56.91;100884.09;4965196;28;123938;-63
2021/09/09 06:24:25;;;;;;;23.92;15.57;;;;;;;19.16;57.15;100897.75;4968517;28;124452;-64
2021/09/09 06:26:52;;;;;;;24.88;15.50;;;;;;;19.23;56.96;100893.59;4968675;28;114178;-63
2021/09/09 06:29:20;;;;;;;23.42;15.18;;;;;;;19.35;57.09;100901.66;4969566;28;113526;-64
2021/09/09 06:31:47;;;;;;;26.20;15.70;;;;;;;19.44;57.18;100884.78;4985691;28;123420;-63
2021/09/09 06:34:14;;;;;;;22.63;15.48;;;;;;;19.55;57.29;100892.81;4967071;28;123973;-63
2021/09/09 06:36:42;;;;;;;31.95;16.52;;;;;;;19.67;57.37;100892.78;4968805;28;114090;-64
2021/09/09 06:39:09;;;;;;;25.45;16.38;;;;;;;19.80;57.58;100891.66;4970046;28;113149;-63
2021/09/09 06:41:36;;;;;;;21.40;15.13;;;;;;;19.96;57.64;100896.59;4968807;28;123875;-63
2021/09/09 06:44:06;;;;;;;23.55;15.20;;;;;;;20.12;57.15;100896.19;4987245;28;124210;-63
2021/09/09 06:46:34;;;;;;;24.17;14.73;;;;;;;20.28;57.25;100906.47;4971159;28;115002;-63
2021/09/09 06:49:01;;;;;;;22.60;14.48;;;;;;;20.43;56.93;100910.53;4966669;28;114441;-63
2021/09/09 06:51:28;;;;;;;24.02;15.40;;;;;;;20.58;56.67;100918.28;4970049;28;124171;-63
2021/09/09 06:53:55;;;;;;;25.98;15.00;;;;;;;20.74;56.60;100923.25;4971652;28;124226;-63
2021/09/09 06:56:23;;;;;;;22.30;14.95;;;;;;;20.88;56.48;100914.78;4969461;28;114894;-64
2021/09/09 06:58:50;;;;;;;23.13;14.23;;;;;;;21.05;56.26;100904.38;4968645;28;115806;-63
2021/09/09 07:01:17;;;;;;;21.65;13.57;;;;;;;21.18;56.30;100905.84;4966737;28;124429;-64
2021/09/09 07:03:45;;;;;;;24.17;14.48;;;;;;;21.35;56.16;100900.78;4968691;28;123897;-64
2021/09/09 07:06:14;;;;;;;21.23;14.30;;;;;;;21.51;55.79;100911.94;4969665;28;114519;-64
2021/09/09 07:08:42;;;;;;;21.45;13.63;;;;;;;21.65;55.44;100896.34;4970342;28;114123;-63
2021/09/09 07:11:13;;;;;;;24.90;14.43;;;;;;;21.77;55.24;100895.22;4983075;28;123220;-64
2021/09/09 07:13:44;;;;;;;21.35;14.43;;;;;;;21.92;55.24;100904.59;4963477;28;124155;-63
2021/09/09 07:16:11;;;;;;;21.70;14.82;;;;;;;22.07;54.91;100912.25;4963653;28;115649;-64
2021/09/09 07:18:38;;;;;;;21.08;14.25;;;;;;;22.24;54.85;100914.22;4958307;28;114469;-64
2021/09/09 07:21:07;;;;;;;20.20;14.15;;;;;;;22.39;54.43;100906.59;4969795;28;124364;-64
2021/09/09 07:23:35;;;;;;;20.17;13.40;;;;;;;22.53;54.11;100902.59;4969815;28;124049;-64
2021/09/09 07:26:02;;;;;;;19.75;13.60;;;;;;;22.63;54.07;100900.72;4972637;28;114207;-64
2021/09/09 07:28:29;;;;;;;23.20;14.00;;;;;;;22.78;53.88;100911.06;4971177;28;114056;-64
2021/09/09 07:30:56;;;;;;;22.17;13.57;;;;;;;22.90;53.60;100904.47;4973111;28;124352;-64
2021/09/09 07:33:23;;;;;;;22.58;13.65;;;;;;;23.02;53.48;100908.69;4968710;28;124117;-64
2021/09/09 07:35:51;;;;;;;20.33;14.18;;;;;;;23.17;53.39;100913.63;4964754;28;114101;-63
2021/09/09 07:38:18;;;;;;;21.08;13.68;;;;;;;23.30;53.04;100916.81;4971010;28;114428;-64
2021/09/09 07:40:45;;;;;;;20.45;14.25;;;;;;;23.42;53.34;100910.22;4970635;28;124770;-62
2021/09/09 07:43:12;;;;;;;22.80;14.65;;;;;;;23.56;53.04;100908.00;4965251;28;123074;-63
2021/09/09 07:45:40;;;;;;;22.17;14.43;;;;;;;23.70;52.79;100910.19;4972575;28;114136;-63
2021/09/09 07:48:07;;;;;;;20.08;13.40;;;;;;;23.83;52.12;100907.16;4957893;28;115133;-63
2021/09/09 07:50:35;;;;;;;19.90;13.07;;;;;;;23.95;52.05;100905.91;4956625;28;124429;-63
2021/09/09 07:53:02;;;;;;;22.05;13.43;;;;;;;24.09;51.99;100907.19;4967775;28;123897;-63
2021/09/09 07:55:29;;;;;;;20.83;14.05;;;;;;;24.23;51.63;100898.53;4973815;28;113595;-63
2021/09/09 07:57:56;;;;;;;20.40;13.50;;;;;;;24.37;51.34;100909.78;4969904;28;114216;-64
2021/09/09 08:00:23;;;;;;;21.08;13.98;;;;;;;24.49;51.53;100903.97;4966578;28;124546;-64
2021/09/09 08:02:50;;;;;;;19.77;13.27;;;;;;;24.63;51.28;100897.13;4972088;28;123447;-65
2021/09/09 08:05:18;;;;;;;19.92;13.15;;;;;;;24.76;50.96;100899.41;4971139;28;114340;-64
2021/09/09 08:07:46;;;;;;;21.13;13.48;;;;;;;24.91;50.69;100896.13;4969179;28;113947;-64
2021/09/09 08:10:16;;;;;;;21.65;13.80;;;;;;;25.04;50.86;100886.53;4969753;28;124446;-64
2021/09/09 08:12:46;;;;;;;19.55;13.50;;;;;;;25.20;50.72;100884.88;4967282;28;124723;-64
2021/09/09 08:15:15;;;;;;;17.58;12.30;;;;;;;25.33;50.12;100890.72;4967913;28;114131;-64
2021/09/09 08:17:42;;;;;;;18.80;13.02;;;;;;;25.45;50.08;100894.00;4965190;28;113959;-63
2021/09/09 08:20:12;;;;;;;16.92;12.18;;;;;;;25.58;49.80;100899.81;4966735;28;123896;-63
2021/09/09 08:22:40;;;;;;;18.50;12.73;;;;;;;25.70;49.47;100892.19;4966176;28;123765;-63
2021/09/09 08:25:09;;;;;;;18.15;11.88;;;;;;;25.81;49.39;100894.56;4964278;28;113934;-63
2021/09/09 08:27:37;;;;;;;16.85;11.95;;;;;;;25.96;49.15;100896.66;4971518;28;114292;-63
2021/09/09 08:30:06;;;;;;;16.80;12.40;;;;;;;26.06;49.28;100897.34;4963628;28;125038;-63
2021/09/09 08:32:34;;;;;;;18.00;12.82;;;;;;;26.17;48.97;100905.16;4963960;28;124322;-63
2021/09/09 08:35:01;;;;;;;16.73;11.57;;;;;;;26.29;48.55;100907.53;4958473;28;116342;-63
2021/09/09 08:37:29;;;;;;;16.80;11.23;;;;;;;26.38;48.55;100903.78;4968273;28;115109;-63
2021/09/09 08:39:56;;;;;;;18.35;11.63;;;;;;;26.48;48.70;100909.88;4967555;28;124947;-63
2021/09/09 08:42:23;;;;;;;17.05;11.23;;;;;;;26.58;48.46;100907.81;4965341;28;123955;-63
2021/09/09 08:44:50;;;;;;;19.98;11.80;;;;;;;26.67;47.90;100910.56;4971560;28;114288;-63
2021/09/09 08:47:46;;;;;;;17.25;11.05;;;;;;;26.75;48.00;100907.84;4972445;28;114335;-63
2021/09/09 08:50:13;;;;;;;17.65;11.25;;;;;;;26.85;47.73;100918.50;4970550;28;123961;-63
2021/09/09 08:52:41;;;;;;;15.30;10.95;;;;;;;26.91;47.80;100921.34;4971280;28;123758;-64
2021/09/09 08:55:09;;;;;;;15.93;10.95;;;;;;;26.97;47.61;100912.53;4972749;28;113057;-64
2021/09/09 08:57:37;;;;;;;18.08;11.20;;;;;;;27.05;47.78;100908.94;4972476;28;114013;-64
2021/09/09 09:00:05;;;;;;;15.93;11.18;;;;;;;27.14;47.59;100915.16;4970100;28;122907;-64
2021/09/09 09:02:47;;;;;;;16.17;11.73;;;;;;;27.23;47.51;100925.00;4972315;28;124658;-64
2021/09/09 09:05:14;;;;;;;17.98;12.48;;;;;;;27.30;46.99;100923.28;4970306;28;114107;-64
2021/09/09 09:07:41;;;;;;;14.57;10.95;;;;;;;27.37;46.73;100918.00;4969512;28;114350;-64
2021/09/09 09:10:09;;;;;;;18.30;11.13;;;;;;;27.45;46.80;100920.69;4960294;28;124118;-64
2021/09/09 09:12:49;;;;;;;16.17;10.95;;;;;;;27.54;47.02;100924.22;4967293;28;123926;-64
2021/09/09 09:15:30;;;;;;;16.48;10.52;;;;;;;27.64;46.99;100911.22;4961154;28;113490;-64
2021/09/09 09:18:08;;;;;;;17.80;12.05;;;;;;;27.74;46.93;100903.66;4970387;28;113943;-64
2021/09/09 09:20:45;;;;;;;17.05;11.38;;;;;;;27.83;46.51;100911.78;4966363;28;124969;-65
2021/09/09 09:23:24;;;;;;;15.27;10.73;;;;;;;27.93;46.50;100917.84;4973715;28;123491;-65
2021/09/09 09:25:58;;;;;;;16.10;11.13;;;;;;;28.04;46.50;100909.25;4965741;28;115168;-65
2021/09/09 09:28:44;;;;;;;17.77;11.43;;;;;;;28.15;46.50;100910.72;4982120;28;114271;-64
2021/09/09 09:31:14;;;;;;;15.15;10.40;;;;;;;28.26;46.86;100923.06;4966730;28;124133;-65
2021/09/09 09:33:56;;;;;;;14.60;10.75;;;;;;;28.39;46.67;100923.28;4965444;28;124701;-65
2021/09/09 09:36:27;;;;;;;17.73;10.98;;;;;;;28.53;46.27;100913.47;4967183;28;113200;-65
2021/09/09 09:39:09;;;;;;;15.63;10.52;;;;;;;28.65;46.28;100916.56;4962162;28;114009;-65
2021/09/09 09:41:38;;;;;;;16.85;11.82;;;;;;;28.74;45.64;100910.00;4969879;28;124801;-65
2021/09/09 09:44:18;;;;;;;17.45;10.98;;;;;;;28.81;45.31;100916.41;4961795;28;124015;-65
2021/09/09 09:46:45;;;;;;;14.25;10.73;;;;;;;28.86;45.25;100919.41;4959742;28;114134;-64
2021/09/09 09:49:30;;;;;;;17.75;11.88;;;;;;;28.89;44.73;100905.38;4964447;28;114073;-65
2021/09/09 09:52:00;;;;;;;14.18;10.20;;;;;;;28.89;45.39;100908.13;4958985;28;124552;-65
2021/09/09 09:54:29;;;;;;;15.05;10.15;;;;;;;28.96;45.36;100896.47;4963653;28;123730;-65
2021/09/09 09:56:57;;;;;;;16.13;9.43;;;;;;;29.06;45.10;100899.75;4971911;28;114459;-65
2021/09/09 09:59:24;;;;;;;14.25;9.38;;;;;;;29.14;45.42;100902.44;4964867;28;113727;-66
2021/09/09 10:01:51;;;;;;;15.02;9.27;;;;;;;29.23;45.27;100903.97;4966889;28;124201;-66
2021/09/09 10:04:21;;;;;;;10.98;8.88;;;;;;;29.34;45.16;100899.09;4962724;28;123996;-66
2021/09/09 10:06:51;;;;;;;14.55;9.48;;;;;;;29.43;45.18;100892.50;4977362;28;114637;-66
2021/09/09 10:09:18;;;;;;;14.15;9.48;;;;;;;29.53;45.25;100893.00;4971239;28;113698;-66
2021/09/09 10:11:47;;;;;;;13.80;9.77;;;;;;;29.63;44.78;100904.47;4961380;28;124046;-66
2021/09/09 10:14:20;;;;;;;11.32;9.00;;;;;;;29.72;44.48;100901.63;4968641;28;124874;-65
2021/09/09 10:16:57;;;;;;;15.05;10.20;;;;;;;29.81;44.52;100905.94;4960466;23;115266;31
2021/09/09 10:19:30;;;;;;;15.20;11.13;;;;;;;29.85;44.38;100904.50;4942737;28;115246;-76
2021/09/09 10:22:04;;;;;;;16.95;12.05;;;;;;;29.89;44.05;100903.06;4945571;28;123242;-76
2021/09/09 10:24:33;;;;;;;17.40;12.00;;;;;;;29.90;43.94;100904.78;4958075;28;123745;-76
2021/09/09 10:27:24;;;;;;;17.10;11.90;;;;;;;29.92;44.01;100902.69;4946939;28;114292;-76
2021/09/09 10:29:59;;;;;;;14.55;11.38;;;;;;;29.96;44.03;100912.19;4949176;28;113817;-76
2021/09/09 10:32:29;;;;;;;18.45;11.32;;;;;;;30.01;44.19;100912.47;4940836;28;123930;-75
2021/09/09 10:35:18;;;;;;;14.88;11.23;;;;;;;30.08;44.24;100924.28;4949601;28;125704;-75
2021/09/09 10:37:50;;;;;;;17.75;11.85;;;;;;;30.16;43.82;100908.78;4946754;28;113811;-76
2021/09/09 10:40:35;;;;;;;17.15;11.90;;;;;;;30.19;43.91;100913.88;4944908;28;115297;-76
2021/09/09 10:43:14;;;;;;;14.13;10.82;;;;;;;30.20;43.71;100912.84;4938331;28;122933;-75
2021/09/09 10:45:44;;;;;;;11.50;9.25;;;;;;;30.22;43.30;100906.13;4947975;28;123858;-76
2021/09/09 10:48:22;;;;;;;15.55;10.23;;;;;;;30.23;43.36;100898.75;4950452;28;114098;-75
2021/09/09 10:51:04;;;;;;;16.17;9.88;;;;;;;30.26;43.46;100903.84;4947523;28;114079;-77
2021/09/09 10:53:43;;;;;;;13.57;9.48;;;;;;;30.27;43.37;100905.53;4950409;28;124082;-77
2021/09/09 10:56:16;;;;;;;12.40;10.18;;;;;;;30.30;42.92;100899.66;4953816;28;124292;-77
2021/09/09 10:58:44;;;;;;;14.75;9.25;;;;;;;30.34;42.75;100900.16;4948753;28;115199;-78
2021/09/09 11:01:12;;;;;;;12.50;9.25;;;;;;;30.36;42.90;100904.38;4955378;28;114171;-77
2021/09/09 11:03:41;;;;;;;12.73;9.60;;;;;;;30.41;42.96;100904.63;4954626;28;124083;-77
2021/09/09 11:06:14;;;;;;;13.80;9.40;;;;;;;30.49;42.99;100897.31;4954052;28;123659;-77
2021/09/09 11:08:43;;;;;;;11.77;9.07;;;;;;;30.54;43.00;100911.25;4953469;28;114480;-77
2021/09/09 11:11:33;;;;;;;13.27;9.80;;;;;;;30.56;42.90;100907.25;4949830;28;114032;-77